Time;durP1;ratioP1;P1;durP2;ratioP2;P2;SDS_P1;SDS_P2;PMS_P1;PMS_P2;Temp;Humidity;BMP_temperature;BMP_pressure;BME280_temperature;BME280_humidity;BME280_pressure;Samples;Min_cycle;Max_cycle;Signal;HPM_P1;HPM_P2
2024/01/30 00:02:17;;;;;;;20.33;12.90;;;;;;;;;;5034099;28;20734;-79
2024/01/30 00:04:44;;;;;;;20.60;12.70;;;;;;;;;;5034387;28;20291;-78
2024/01/30 00:07:12;;;;;;;21.67;13.03;;;;;;;;;;5033872;28;20220;-78
2024/01/30 00:09:40;;;;;;;19.30;12.77;;;;;;;;;;5033767;28;20196;-78
2024/01/30 00:12:08;;;;;;;20.20;13.17;;;;;;;;;;5033598;28;20574;-79
2024/01/30 00:14:36;;;;;;;21.13;13.00;;;;;;;;;;5033046;28;20304;-79
2024/01/30 00:17:03;;;;;;;23.53;12.87;;;;;;;;;;5033964;28;20284;-79
2024/01/30 00:19:30;;;;;;;20.13;12.80;;;;;;;;;;5033722;28;20278;-79
2024/01/30 00:21:57;;;;;;;20.07;12.57;;;;;;;;;;5033521;28;20212;-78
2024/01/30 00:24:24;;;;;;;18.97;12.80;;;;;;;;;;5033490;28;20303;-79
2024/01/30 00:26:52;;;;;;;20.53;13.27;;;;;;;;;;5033623;28;20278;-77
2024/01/30 00:29:22;;;;;;;18.50;13.07;;;;;;;;;;5033551;28;20208;-79
2024/01/30 00:31:50;;;;;;;19.97;13.00;;;;;;;;;;5033375;28;20246;-79
2024/01/30 00:34:17;;;;;;;20.60;12.83;;;;;;;;;;5033654;28;20243;-78
2024/01/30 00:36:44;;;;;;;22.07;13.17;;;;;;;;;;5039688;28;20295;-78
2024/01/30 00:39:11;;;;;;;21.03;13.37;;;;;;;;;;5053111;28;20731;-79
2024/01/30 00:41:39;;;;;;;22.83;13.50;;;;;;;;;;5053561;28;20203;-78
2024/01/30 00:44:06;;;;;;;19.00;13.07;;;;;;;;;;5052574;28;20200;-79
2024/01/30 00:46:34;;;;;;;19.10;12.70;;;;;;;;;;5052995;28;20291;-78
2024/01/30 00:49:02;;;;;;;22.47;12.57;;;;;;;;;;5053113;28;20233;-79
2024/01/30 00:51:29;;;;;;;19.67;12.57;;;;;;;;;;5053044;28;20199;-79
2024/01/30 00:53:57;;;;;;;21.77;13.80;;;;;;;;;;5053305;28;20202;-78
2024/01/30 00:56:24;;;;;;;22.47;12.97;;;;;;;;;;5052188;28;20218;-78
2024/01/30 00:58:51;;;;;;;19.30;12.90;;;;;;;;;;5052579;28;20293;-78
2024/01/30 01:01:18;;;;;;;19.63;12.63;;;;;;;;;;5052626;28;20756;-79
2024/01/30 01:03:48;;;;;;;22.57;12.20;;;;;;;;;;5052501;28;20191;-79
2024/01/30 01:06:15;;;;;;;19.00;12.83;;;;;;;;;;5052739;28;20199;-78
2024/01/30 01:08:42;;;;;;;21.40;13.40;;;;;;;;;;5052284;28;20628;-78
2024/01/30 01:11:09;;;;;;;21.63;12.67;;;;;;;;;;5051984;28;20196;-77
2024/01/30 01:13:36;;;;;;;20.27;12.83;;;;;;;;;;5052590;28;20223;-79
2024/01/30 01:16:04;;;;;;;20.57;12.47;;;;;;;;;;5052682;28;20220;-79
2024/01/30 01:18:31;;;;;;;19.97;12.43;;;;;;;;;;5052303;28;20322;-77
2024/01/30 01:21:01;;;;;;;22.03;11.90;;;;;;;;;;5052606;28;20227;-78
2024/01/30 01:23:28;;;;;;;27.53;12.67;;;;;;;;;;5052046;28;20579;-79
2024/01/30 01:25:55;;;;;;;21.03;12.27;;;;;;;;;;5051789;28;20242;-81
2024/01/30 01:28:22;;;;;;;19.90;12.80;;;;;;;;;;5051829;28;20713;-79
2024/01/30 01:30:49;;;;;;;23.53;12.50;;;;;;;;;;5052482;28;20223;-78
2024/01/30 01:33:17;;;;;;;21.83;12.37;;;;;;;;;;5052308;28;20249;-79
2024/01/30 01:35:44;;;;;;;22.53;12.33;;;;;;;;;;5051468;28;20277;-76
2024/01/30 01:38:13;;;;;;;24.07;12.63;;;;;;;;;;5052490;28;20290;-79
2024/01/30 01:40:41;;;;;;;22.90;12.63;;;;;;;;;;5051493;28;20227;-79
2024/01/30 01:43:08;;;;;;;20.93;12.40;;;;;;;;;;5052301;28;20195;-78
2024/01/30 01:45:35;;;;;;;27.63;12.30;;;;;;;;;;5052224;28;20611;-79
2024/01/30 01:48:02;;;;;;;24.93;13.00;;;;;;;;;;5051862;28;20295;-79
2024/01/30 01:50:29;;;;;;;25.63;13.37;;;;;;;;;;5051474;28;20236;-79
2024/01/30 01:52:57;;;;;;;26.00;13.27;;;;;;;;;;5052202;28;20279;-78
2024/01/30 01:55:27;;;;;;;20.03;12.97;;;;;;;;;;5051247;28;20199;-79
2024/01/30 01:57:55;;;;;;;24.63;12.23;;;;;;;;;;5051480;28;20195;-78
2024/01/30 02:00:22;;;;;;;26.00;12.23;;;;;;;;;;5041960;28;20220;-77
2024/01/30 02:02:49;;;;;;;22.47;12.13;;;;;;;;;;5031837;28;20287;-78
2024/01/30 02:05:17;;;;;;;29.13;13.30;;;;;;;;;;5031728;28;20283;-79
2024/01/30 02:07:45;;;;;;;22.00;12.20;;;;;;;;;;5030933;28;20227;-78
2024/01/30 02:10:12;;;;;;;24.07;12.87;;;;;;;;;;5031265;28;20224;-78
2024/01/30 02:12:41;;;;;;;27.80;12.27;;;;;;;;;;5031622;28;20200;-77
2024/01/30 02:15:08;;;;;;;21.83;12.20;;;;;;;;;;5031317;28;20224;-77
2024/01/30 02:17:35;;;;;;;25.57;12.77;;;;;;;;;;5031736;28;20283;-78
2024/01/30 02:20:05;;;;;;;23.13;12.00;;;;;;;;;;5031620;28;20678;-79
2024/01/30 02:22:35;;;;;;;22.03;11.60;;;;;;;;;;5031501;28;20196;-79
2024/01/30 02:25:02;;;;;;;28.70;12.87;;;;;;;;;;5031039;28;20278;-79
2024/01/30 02:27:29;;;;;;;27.13;11.97;;;;;;;;;;5031382;28;20588;-78
2024/01/30 02:29:57;;;;;;;28.23;12.77;;;;;;;;;;5030998;28;20208;-79
2024/01/30 02:32:24;;;;;;;25.17;11.60;;;;;;;;;;5031275;28;20211;-78
2024/01/30 02:34:51;;;;;;;25.07;12.20;;;;;;;;;;5031935;28;20196;-79
2024/01/30 02:37:18;;;;;;;27.17;12.83;;;;;;;;;;5031201;28;20315;-78
2024/01/30 02:39:47;;;;;;;24.17;12.47;;;;;;;;;;5030923;28;20226;-78
2024/01/30 02:42:14;;;;;;;23.03;13.33;;;;;;;;;;5031400;28;20287;-79
2024/01/30 02:44:45;;;;;;;24.03;13.47;;;;;;;;;;5031222;28;20275;-78
2024/01/30 02:47:13;;;;;;;25.37;12.07;;;;;;;;;;5030974;28;20261;-78
2024/01/30 02:49:40;;;;;;;21.33;12.03;;;;;;;;;;5020711;28;20200;-79
2024/01/30 02:52:07;;;;;;;33.50;12.80;;;;;;;;;;5026998;28;20769;-76
2024/01/30 02:54:34;;;;;;;29.67;12.37;;;;;;;;;;5030664;28;20288;-78
2024/01/30 02:57:03;;;;;;;21.47;12.50;;;;;;;;;;5030920;28;20553;-79
2024/01/30 02:59:33;;;;;;;25.20;12.63;;;;;;;;;;5030984;28;20318;-78
2024/01/30 03:02:00;;;;;;;27.27;12.77;;;;;;;;;;5031260;28;20641;-79
2024/01/30 03:04:27;;;;;;;24.43;11.30;;;;;;;;;;5031058;28;20242;-78
2024/01/30 03:06:54;;;;;;;24.43;12.30;;;;;;;;;;5031131;28;20197;-79
2024/01/30 03:09:21;;;;;;;26.60;11.30;;;;;;;;;;5031270;28;20570;-79
2024/01/30 03:11:48;;;;;;;24.67;11.47;;;;;;;;;;5023356;28;20677;-79
2024/01/30 03:14:17;;;;;;;21.43;11.93;;;;;;;;;;5011328;28;20717;-78
2024/01/30 03:16:44;;;;;;;20.77;11.17;;;;;;;;;;5011631;28;20228;-78
2024/01/30 03:19:11;;;;;;;20.90;11.27;;;;;;;;;;5013747;28;20335;-79
2024/01/30 03:21:38;;;;;;;22.90;11.47;;;;;;;;;;5014911;28;20868;-79
2024/01/30 03:24:06;;;;;;;26.80;12.00;;;;;;;;;;5014514;28;20201;-78
2024/01/30 03:26:33;;;;;;;22.67;11.47;;;;;;;;;;5015156;28;20225;-78
2024/01/30 03:29:00;;;;;;;24.90;11.23;;;;;;;;;;5015128;28;20259;-80
2024/01/30 03:31:29;;;;;;;23.00;11.33;;;;;;;;;;5014589;28;20201;-79
2024/01/30 03:33:56;;;;;;;21.80;10.50;;;;;;;;;;5014695;28;20224;-78
2024/01/30 03:36:23;;;;;;;21.57;10.83;;;;;;;;;;5021568;28;20255;-79
2024/01/30 03:38:51;;;;;;;21.50;11.13;;;;;;;;;;5054387;28;20739;-79
2024/01/30 03:41:18;;;;;;;24.07;12.03;;;;;;;;;;5054065;28;20287;-79
2024/01/30 03:43:45;;;;;;;24.87;12.03;;;;;;;;;;5054231;28;20735;-78
2024/01/30 03:46:13;;;;;;;20.07;11.10;;;;;;;;;;5054226;28;20199;-79
2024/01/30 03:48:42;;;;;;;24.00;12.47;;;;;;;;;;5053875;28;20199;-76
2024/01/30 03:51:14;;;;;;;25.43;12.53;;;;;;;;;;5054077;28;20219;-79
2024/01/30 03:53:41;;;;;;;24.37;11.87;;;;;;;;;;5054425;28;20750;-79
2024/01/30 03:56:08;;;;;;;26.50;12.67;;;;;;;;;;5054292;28;20199;-77
2024/01/30 03:58:36;;;;;;;30.50;13.20;;;;;;;;;;5054100;28;20866;-79
2024/01/30 04:01:03;;;;;;;26.53;13.90;;;;;;;;;;5053952;28;20273;-78
2024/01/30 04:03:30;;;;;;;24.83;13.47;;;;;;;;;;5054313;28;20216;-78
2024/01/30 04:05:59;;;;;;;22.00;13.50;;;;;;;;;;5053683;28;20218;-78
2024/01/30 04:08:26;;;;;;;25.57;13.13;;;;;;;;;;5053721;28;20282;-78
2024/01/30 04:10:53;;;;;;;24.57;13.07;;;;;;;;;;5054068;28;20195;-78
2024/01/30 04:13:20;;;;;;;26.90;14.00;;;;;;;;;;5053796;28;20298;-78
2024/01/30 04:15:48;;;;;;;21.47;13.03;;;;;;;;;;5053169;28;20227;-79
2024/01/30 04:18:15;;;;;;;29.97;14.17;;;;;;;;;;5053819;28;20299;-78
2024/01/30 04:20:42;;;;;;;26.27;14.17;;;;;;;;;;5053193;28;20727;-79
2024/01/30 04:23:10;;;;;;;27.20;14.73;;;;;;;;;;5053447;28;20192;-79
2024/01/30 04:25:37;;;;;;;21.63;13.10;;;;;;;;;;5053192;28;20671;-77
2024/01/30 04:28:05;;;;;;;21.27;12.00;;;;;;;;;;5053757;28;20196;-79
2024/01/30 04:30:32;;;;;;;21.97;10.73;;;;;;;;;;5052496;28;20297;-79
2024/01/30 04:32:59;;;;;;;16.43;9.50;;;;;;;;;;5053221;28;20638;-77
2024/01/30 04:35:26;;;;;;;13.90;7.50;;;;;;;;;;5053101;28;20287;-78
2024/01/30 04:37:54;;;;;;;12.07;5.10;;;;;;;;;;5053125;28;20282;-79
2024/01/30 04:40:23;;;;;;;10.47;4.67;;;;;;;;;;5053137;28;20255;-78
2024/01/30 04:42:50;;;;;;;11.57;3.67;;;;;;;;;;5053387;28;20290;-79
2024/01/30 04:45:17;;;;;;;7.20;3.40;;;;;;;;;;5052815;28;20629;-78
2024/01/30 04:47:44;;;;;;;5.63;2.97;;;;;;;;;;5053090;28;20556;-78
2024/01/30 04:50:11;;;;;;;9.23;2.33;;;;;;;;;;5052849;28;20665;-79
2024/01/30 04:52:38;;;;;;;7.63;2.70;;;;;;;;;;5052844;28;20282;-78
2024/01/30 04:55:06;;;;;;;8.40;2.10;;;;;;;;;;5053002;28;20282;-79
2024/01/30 04:57:34;;;;;;;6.67;1.77;;;;;;;;;;5053232;28;20206;-77
2024/01/30 05:00:02;;;;;;;5.90;1.77;;;;;;;;;;5052790;28;20330;-79
2024/01/30 05:02:29;;;;;;;6.93;1.70;;;;;;;;;;5052915;28;20230;-78
2024/01/30 05:04:56;;;;;;;5.53;1.97;;;;;;;;;;5052932;28;20286;-78
2024/01/30 05:07:23;;;;;;;6.93;1.80;;;;;;;;;;5052506;28;20200;-78
2024/01/30 05:09:50;;;;;;;3.60;1.43;;;;;;;;;;5052626;28;20220;-79
2024/01/30 05:12:17;;;;;;;4.77;1.70;;;;;;;;;;5052506;28;20342;-79
2024/01/30 05:14:46;;;;;;;4.20;1.90;;;;;;;;;;5052821;28;20577;-78
2024/01/30 05:17:13;;;;;;;4.03;1.73;;;;;;;;;;5052438;28;20222;-78
2024/01/30 05:19:41;;;;;;;5.07;1.87;;;;;;;;;;5052161;28;20246;-78
2024/01/30 05:22:08;;;;;;;5.60;2.30;;;;;;;;;;5052363;28;20202;-79
2024/01/30 05:24:35;;;;;;;4.47;2.13;;;;;;;;;;5051992;28;20322;-78
2024/01/30 05:27:02;;;;;;;4.83;1.83;;;;;;;;;;5052294;28;20254;-78
2024/01/30 05:29:30;;;;;;;7.20;2.47;;;;;;;;;;5052323;28;20609;-77
2024/01/30 05:31:58;;;;;;;10.47;2.80;;;;;;;;;;5051888;28;20282;-78
2024/01/30 05:34:25;;;;;;;7.03;2.80;;;;;;;;;;5051992;28;20306;-79
2024/01/30 05:36:52;;;;;;;5.57;1.93;;;;;;;;;;5052484;28;20223;-79
2024/01/30 05:39:20;;;;;;;6.03;1.93;;;;;;;;;;5051367;28;20279;-77
2024/01/30 05:41:47;;;;;;;7.17;1.77;;;;;;;;;;5051992;28;20278;-78
2024/01/30 05:44:14;;;;;;;5.57;1.73;;;;;;;;;;5052049;28;20752;-79
2024/01/30 05:46:41;;;;;;;3.37;1.57;;;;;;;;;;5051651;28;20286;-78
2024/01/30 05:49:09;;;;;;;5.03;1.60;;;;;;;;;;5051529;28;20290;-78
2024/01/30 05:51:37;;;;;;;5.67;1.70;;;;;;;;;;5051724;28;20227;-79
2024/01/30 05:54:04;;;;;;;5.17;1.60;;;;;;;;;;5052115;28;20215;-79
2024/01/30 05:56:31;;;;;;;4.07;1.40;;;;;;;;;;5051349;28;20211;-78
2024/01/30 05:58:58;;;;;;;3.47;1.27;;;;;;;;;;5052170;28;20295;-77
2024/01/30 06:01:25;;;;;;;4.20;1.57;;;;;;;;;;5051443;28;20331;-78
2024/01/30 06:03:53;;;;;;;5.03;1.63;;;;;;;;;;5051427;28;20290;-78
2024/01/30 06:06:21;;;;;;;3.80;1.50;;;;;;;;;;5051640;28;20290;-78
2024/01/30 06:08:48;;;;;;;6.10;1.83;;;;;;;;;;5052038;28;20202;-78
2024/01/30 06:11:15;;;;;;;5.10;1.60;;;;;;;;;;5051440;28;20199;-78
2024/01/30 06:13:43;;;;;;;4.73;1.77;;;;;;;;;;5051416;28;20219;-76
2024/01/30 06:16:12;;;;;;;5.47;2.10;;;;;;;;;;5051149;28;20204;-80
2024/01/30 06:18:39;;;;;;;7.53;2.60;;;;;;;;;;5051533;28;20661;-79
2024/01/30 06:21:06;;;;;;;8.73;3.23;;;;;;;;;;5051141;28;20318;-79
2024/01/30 06:23:35;;;;;;;4.83;2.07;;;;;;;;;;5051384;28;20206;-78
2024/01/30 06:26:02;;;;;;;5.50;2.17;;;;;;;;;;5050745;28;20310;-80
2024/01/30 06:28:29;;;;;;;3.70;1.20;;;;;;;;;;5051419;28;20316;-79
2024/01/30 06:30:57;;;;;;;4.93;1.40;;;;;;;;;;5051180;28;20679;-79
2024/01/30 06:33:24;;;;;;;5.30;1.47;;;;;;;;;;5051213;28;20223;-79
2024/01/30 06:35:51;;;;;;;2.90;1.10;;;;;;;;;;5051383;28;20254;-80
2024/01/30 06:38:19;;;;;;;3.67;1.30;;;;;;;;;;5050921;28;20303;-79
2024/01/30 06:40:47;;;;;;;2.47;1.30;;;;;;;;;;5023816;28;20325;-79
2024/01/30 06:43:14;;;;;;;3.20;1.07;;;;;;;;;;5026966;28;20291;-79
2024/01/30 06:45:42;;;;;;;2.33;1.10;;;;;;;;;;5034266;28;20231;-79
2024/01/30 06:48:10;;;;;;;2.50;1.13;;;;;;;;;;5050921;28;20664;-79
2024/01/30 06:50:37;;;;;;;2.97;1.00;;;;;;;;;;5050595;28;20210;-80
2024/01/30 06:53:04;;;;;;;3.40;1.10;;;;;;;;;;5051552;28;20196;-77
2024/01/30 06:55:32;;;;;;;2.37;1.10;;;;;;;;;;5055219;28;20386;-79
2024/01/30 06:58:00;;;;;;;1.97;1.00;;;;;;;;;;5055457;28;20202;-79
2024/01/30 07:00:28;;;;;;;1.50;1.10;;;;;;;;;;5054418;28;20246;-79
2024/01/30 07:02:55;;;;;;;3.00;1.40;;;;;;;;;;5055060;28;20245;-79
2024/01/30 07:05:22;;;;;;;4.07;1.30;;;;;;;;;;5055153;28;20230;-79
2024/01/30 07:07:50;;;;;;;4.93;1.70;;;;;;;;;;5055049;28;20574;-78
2024/01/30 07:10:18;;;;;;;2.10;1.40;;;;;;;;;;5055283;28;20791;-78
2024/01/30 07:12:45;;;;;;;3.20;1.23;;;;;;;;;;5055053;28;20319;-79
2024/01/30 07:15:16;;;;;;;5.50;1.40;;;;;;;;;;5055067;28;20287;-78
2024/01/30 07:17:43;;;;;;;2.57;1.00;;;;;;;;;;5054537;28;20287;-79
2024/01/30 07:20:11;;;;;;;2.27;1.10;;;;;;;;;;5054530;28;20222;-79
2024/01/30 07:22:38;;;;;;;1.30;1.00;;;;;;;;;;5054881;28;20676;-79
2024/01/30 07:25:05;;;;;;;2.27;1.37;;;;;;;;;;5054655;28;20686;-79
2024/01/30 07:27:33;;;;;;;1.97;1.00;;;;;;;;;;5055134;28;20235;-79
2024/01/30 07:30:00;;;;;;;1.70;1.03;;;;;;;;;;5054234;28;20196;-79
2024/01/30 07:32:28;;;;;;;4.27;1.20;;;;;;;;;;5054493;28;20206;-79
2024/01/30 07:34:55;;;;;;;3.77;1.20;;;;;;;;;;5054616;28;20242;-79
2024/01/30 07:37:23;;;;;;;2.80;0.90;;;;;;;;;;5043012;28;20270;-79
2024/01/30 07:39:50;;;;;;;2.40;0.90;;;;;;;;;;5034505;28;20224;-78
2024/01/30 07:42:17;;;;;;;1.53;0.70;;;;;;;;;;5034825;28;20254;-79
2024/01/30 07:44:44;;;;;;;2.57;0.80;;;;;;;;;;5034400;28;20201;-79
2024/01/30 07:47:11;;;;;;;1.57;0.77;;;;;;;;;;5034525;28;20717;-79
2024/01/30 07:49:43;;;;;;;1.70;0.80;;;;;;;;;;5034609;28;20391;-79
2024/01/30 07:52:10;;;;;;;2.40;0.97;;;;;;;;;;5034144;28;20281;-79
2024/01/30 07:54:50;;;;;;;2.67;1.70;;;;;;;;;;5034611;28;20311;-79
2024/01/30 07:57:17;;;;;;;3.03;2.13;;;;;;;;;;5034500;28;20228;-79
2024/01/30 07:59:44;;;;;;;6.37;2.40;;;;;;;;;;5033593;28;20196;-79
2024/01/30 08:02:12;;;;;;;3.27;2.37;;;;;;;;;;5034267;28;20735;-79
2024/01/30 08:04:39;;;;;;;4.07;2.50;;;;;;;;;;5032773;28;20303;-79
2024/01/30 08:07:07;;;;;;;3.20;2.90;;;;;;;;;;5034299;28;20287;-78
2024/01/30 08:09:34;;;;;;;3.23;2.50;;;;;;;;;;5034085;28;20295;-78
2024/01/30 08:12:02;;;;;;;3.87;2.00;;;;;;;;;;5033693;28;20295;-79
2024/01/30 08:14:29;;;;;;;2.37;1.87;;;;;;;;;;5034079;28;20219;-79
2024/01/30 08:16:56;;;;;;;2.77;1.60;;;;;;;;;;5034078;28;20220;-79
2024/01/30 08:19:23;;;;;;;3.60;1.50;;;;;;;;;;5034170;28;20287;-79
2024/01/30 08:21:50;;;;;;;2.00;1.60;;;;;;;;;;5033833;28;20275;-79
2024/01/30 08:24:19;;;;;;;3.33;1.70;;;;;;;;;;5025223;28;20284;-79
2024/01/30 08:26:46;;;;;;;3.63;1.53;;;;;;;;;;5013604;28;20296;-79
2024/01/30 08:29:14;;;;;;;4.27;1.57;;;;;;;;;;5013866;28;20199;-79
2024/01/30 08:31:41;;;;;;;3.73;1.90;;;;;;;;;;5013633;28;20677;-78
2024/01/30 08:34:08;;;;;;;2.50;1.40;;;;;;;;;;5013926;28;20292;-78
2024/01/30 08:36:35;;;;;;;3.10;1.50;;;;;;;;;;5018848;28;20288;-79
2024/01/30 08:39:02;;;;;;;2.60;1.60;;;;;;;;;;5033481;28;20291;-79
2024/01/30 08:41:31;;;;;;;4.23;1.67;;;;;;;;;;5033212;28;20244;-79
2024/01/30 08:43:58;;;;;;;4.07;1.80;;;;;;;;;;5033334;28;20699;-79
2024/01/30 08:46:25;;;;;;;2.57;2.17;;;;;;;;;;5033625;28;20287;-77
2024/01/30 08:48:53;;;;;;;3.87;2.03;;;;;;;;;;5033704;28;20287;-79
2024/01/30 08:51:20;;;;;;;1.80;1.15;;;;;;;;;;5033400;28;20222;-79
2024/01/30 08:53:47;;;;;;;2.60;1.73;;;;;;;;;;5033067;28;20295;-79
2024/01/30 08:56:16;;;;;;;3.85;1.77;;;;;;;;;;5032796;28;20365;-79
2024/01/30 08:58:44;;;;;;;4.13;2.30;;;;;;;;;;5033475;28;20204;-80
2024/01/30 09:01:11;;;;;;;3.35;1.90;;;;;;;;;;5033048;28;20315;-79
2024/01/30 09:03:40;;;;;;;2.20;1.63;;;;;;;;;;5033240;28;20200;-78
2024/01/30 09:06:10;;;;;;;3.00;1.60;;;;;;;;;;5032933;28;20192;-79
2024/01/30 09:08:37;;;;;;;3.83;1.90;;;;;;;;;;5032834;28;20207;-79
2024/01/30 09:11:09;;;;;;;3.67;1.47;;;;;;;;;;5032642;28;20228;-78
2024/01/30 09:13:37;;;;;;;2.17;1.23;;;;;;;;;;5033014;28;20347;-77
2024/01/30 09:16:06;;;;;;;3.47;1.43;;;;;;;;;;5032570;28;20275;-79
2024/01/30 09:18:33;;;;;;;1.70;1.43;;;;;;;;;;5033301;28;20199;-77
2024/01/30 09:21:00;;;;;;;2.77;1.33;;;;;;;;;;5032690;28;20303;-79
2024/01/30 09:23:28;;;;;;;2.37;1.90;;;;;;;;;;5032805;28;20280;-79
2024/01/30 09:25:56;;;;;;;2.88;1.67;;;;;;;;;;5032004;28;20236;-79
2024/01/30 09:28:23;;;;;;;3.20;2.30;;;;;;;;;;5033051;28;20197;-79
2024/01/30 09:30:50;;;;;;;2.80;2.20;;;;;;;;;;5032797;28;20638;-79
2024/01/30 09:33:19;;;;;;;2.97;2.38;;;;;;;;;;5032306;28;20243;-79
2024/01/30 09:35:47;;;;;;;2.35;1.50;;;;;;;;;;5032493;28;20236;-80
2024/01/30 09:38:14;;;;;;;1.40;1.10;;;;;;;;;;5051010;28;20225;-78
2024/01/30 09:40:41;;;;;;;1.30;1.20;;;;;;;;;;5052257;28;20223;-78
2024/01/30 09:43:09;;;;;;;1.90;1.10;;;;;;;;;;5051703;28;20200;-77
2024/01/30 09:45:36;;;;;;;1.77;1.27;;;;;;;;;;5052174;28;20200;-80
2024/01/30 09:48:04;;;;;;;2.05;0.88;;;;;;;;;;5052413;28;20228;-79
2024/01/30 09:50:33;;;;;;;2.33;1.08;;;;;;;;;;5052107;28;20238;-79
2024/01/30 09:53:00;;;;;;;0.90;0.70;;;;;;;;;;5051922;28;20290;-79
2024/01/30 09:55:28;;;;;;;1.20;0.70;;;;;;;;;;5051718;28;20223;-79
2024/01/30 09:57:55;;;;;;;0.93;0.63;;;;;;;;;;5051940;28;20537;-80
2024/01/30 10:00:27;;;;;;;1.42;0.77;;;;;;;;;;5052118;28;20755;-79
2024/01/30 10:02:54;;;;;;;1.58;0.80;;;;;;;;;;5051589;28;20620;-79
2024/01/30 10:05:21;;;;;;;1.65;0.80;;;;;;;;;;5051872;28;20200;-79
2024/01/30 10:07:56;;;;;;;1.25;0.90;;;;;;;;;;5052033;28;20196;-79
2024/01/30 10:10:24;;;;;;;1.10;0.70;;;;;;;;;;5052058;28;20242;-80
2024/01/30 10:12:51;;;;;;;1.33;0.77;;;;;;;;;;5051585;28;20204;-80
2024/01/30 10:15:19;;;;;;;0.70;0.50;;;;;;;;;;5051728;28;20287;-79
2024/01/30 10:17:46;;;;;;;1.45;0.65;;;;;;;;;;5051530;28;20290;-79
2024/01/30 10:20:14;;;;;;;1.40;0.70;;;;;;;;;;5051943;28;20286;-79
2024/01/30 10:22:43;;;;;;;1.48;0.70;;;;;;;;;;5050775;28;20219;-79
2024/01/30 10:25:12;;;;;;;1.30;0.60;;;;;;;;;;5051539;28;20588;-80
2024/01/30 10:27:41;;;;;;;0.80;0.70;;;;;;;;;;5050845;28;20206;-80
2024/01/30 10:30:09;;;;;;;1.25;0.60;;;;;;;;;;5051646;28;20282;-79
2024/01/30 10:32:36;;;;;;;1.17;0.60;;;;;;;;;;5051127;28;20199;-80
2024/01/30 10:35:03;;;;;;;0.80;0.60;;;;;;;;;;5051383;28;20199;-80
2024/01/30 10:37:32;;;;;;;1.10;0.70;;;;;;;;;;5050837;28;20196;-79
2024/01/30 10:40:03;;;;;;;1.02;0.60;;;;;;;;;;5051779;28;20702;-80
2024/01/30 10:42:33;;;;;;;1.17;0.57;;;;;;;;;;5051149;28;20227;-79
2024/01/30 10:45:04;;;;;;;0.57;0.40;;;;;;;;;;5051349;28;20198;-80
2024/01/30 10:47:31;;;;;;;1.20;0.60;;;;;;;;;;5051532;28;20196;-79
2024/01/30 10:49:59;;;;;;;2.15;0.55;;;;;;;;;;5051240;28;21052;-79
2024/01/30 10:52:26;;;;;;;1.63;0.70;;;;;;;;;;5050798;28;20208;-78
2024/01/30 10:54:53;;;;;;;1.80;0.60;;;;;;;;;;5051078;28;20195;-79
2024/01/30 10:57:21;;;;;;;0.60;0.60;;;;;;;;;;5051583;28;20241;-80
2024/01/30 10:59:50;;;;;;;1.65;0.55;;;;;;;;;;5050844;28;20223;-80
2024/01/30 11:02:17;;;;;;;2.25;0.50;;;;;;;;;;5051572;28;20315;-81
2024/01/30 11:04:45;;;;;;;0.40;0.30;;;;;;;;;;5051167;28;20242;-79
2024/01/30 11:07:20;;;;;;;1.42;0.60;;;;;;;;;;5050480;28;20667;-80
2024/01/30 11:09:51;;;;;;;1.50;0.93;;;;;;;;;;5049889;28;20195;-80
2024/01/30 11:12:23;;;;;;;1.63;0.70;;;;;;;;;;5051682;28;20196;-79
2024/01/30 11:14:51;;;;;;;1.15;0.70;;;;;;;;;;5051261;28;20638;-80
2024/01/30 11:17:19;;;;;;;2.10;0.52;;;;;;;;;;5051150;28;20195;-80
2024/01/30 11:19:47;;;;;;;0.60;0.50;;;;;;;;;;5051009;28;20191;-80
2024/01/30 11:22:15;;;;;;;2.83;0.73;;;;;;;;;;5050697;28;20663;-79
2024/01/30 11:24:42;;;;;;;1.08;0.43;;;;;;;;;;5050755;28;20236;-80
2024/01/30 11:27:11;;;;;;;1.27;0.40;;;;;;;;;;5051357;28;20200;-80
2024/01/30 11:29:38;;;;;;;2.22;0.55;;;;;;;;;;5050875;28;20636;-80
2024/01/30 11:32:07;;;;;;;0.75;0.52;;;;;;;;;;5051015;28;20200;-79
2024/01/30 11:34:35;;;;;;;1.40;0.60;;;;;;;;;;5050576;28;20269;-79
2024/01/30 11:37:05;;;;;;;1.55;0.60;;;;;;;;;;5050655;28;20216;-79
2024/01/30 11:39:32;;;;;;;1.35;0.60;;;;;;;;;;5052803;28;20337;-79
2024/01/30 11:42:00;;;;;;;0.80;0.70;;;;;;;;;;5054232;28;20227;-79
2024/01/30 11:44:27;;;;;;;1.85;0.60;;;;;;;;;;5054504;28;20764;-80
2024/01/30 11:46:54;;;;;;;1.65;0.63;;;;;;;;;;5054657;28;20290;-79
2024/01/30 11:49:23;;;;;;;1.63;0.40;;;;;;;;;;5054134;28;20227;-80
2024/01/30 11:51:50;;;;;;;1.50;0.50;;;;;;;;;;5054819;28;20230;-80
2024/01/30 11:54:17;;;;;;;2.38;0.55;;;;;;;;;;5054376;28;20238;-79
2024/01/30 11:56:45;;;;;;;1.08;0.50;;;;;;;;;;5054558;28;20302;-80
2024/01/30 11:59:12;;;;;;;1.00;0.65;;;;;;;;;;5054547;28;20286;-80
2024/01/30 12:01:39;;;;;;;1.08;0.52;;;;;;;;;;5054185;28;20255;-80
2024/01/30 12:04:08;;;;;;;2.00;0.68;;;;;;;;;;5053715;28;20219;-79
2024/01/30 12:06:37;;;;;;;1.40;0.60;;;;;;;;;;5054170;28;20199;-81
2024/01/30 12:09:05;;;;;;;1.55;0.70;;;;;;;;;;5054419;28;20286;-80
2024/01/30 12:11:32;;;;;;;2.90;0.70;;;;;;;;;;5054043;28;20200;-80
2024/01/30 12:13:59;;;;;;;3.10;0.63;;;;;;;;;;5054161;28;20196;-80
2024/01/30 12:16:27;;;;;;;1.85;0.55;;;;;;;;;;5054395;28;20198;-80
2024/01/30 12:19:01;;;;;;;1.48;0.45;;;;;;;;;;5053640;28;20644;-80
2024/01/30 12:21:29;;;;;;;1.20;0.30;;;;;;;;;;5053791;28;20206;-80
2024/01/30 12:23:57;;;;;;;1.65;0.40;;;;;;;;;;5053848;28;20282;-80
2024/01/30 12:26:26;;;;;;;0.73;0.20;;;;;;;;;;5053926;28;20663;-80
2024/01/30 12:28:57;;;;;;;1.45;0.35;;;;;;;;;;5053581;28;20287;-79
2024/01/30 12:31:27;;;;;;;2.28;0.20;;;;;;;;;;5053642;28;20202;-81
2024/01/30 12:33:55;;;;;;;1.02;0.35;;;;;;;;;;5053232;28;20196;-80
2024/01/30 12:36:22;;;;;;;0.60;0.20;;;;;;;;;;5053410;28;20203;-79
2024/01/30 12:38:50;;;;;;;2.75;0.40;;;;;;;;;;5053389;28;20203;-80
2024/01/30 12:41:19;;;;;;;3.47;0.47;;;;;;;;;;5053461;28;20302;-80
2024/01/30 12:43:47;;;;;;;7.50;0.82;;;;;;;;;;5053459;28;20227;-79
2024/01/30 12:46:14;;;;;;;1.15;0.13;;;;;;;;;;5053492;28;20250;-80
2024/01/30 12:48:41;;;;;;;0.98;0.20;;;;;;;;;;5052726;28;20196;-79
2024/01/30 12:51:09;;;;;;;2.28;0.38;;;;;;;;;;5052476;28;20639;-80
2024/01/30 12:53:36;;;;;;;8.00;0.80;;;;;;;;;;5053072;28;20219;-80
2024/01/30 12:56:03;;;;;;;2.25;0.50;;;;;;;;;;5053564;28;20224;-79
2024/01/30 12:58:32;;;;;;;2.08;0.73;;;;;;;;;;5053194;28;20290;-79
2024/01/30 13:00:59;;;;;;;0.88;0.50;;;;;;;;;;5053297;28;20279;-79
2024/01/30 13:03:26;;;;;;;1.08;0.52;;;;;;;;;;5052808;28;20310;-80
2024/01/30 13:05:53;;;;;;;1.30;0.40;;;;;;;;;;5052904;28;20196;-79
2024/01/30 13:08:20;;;;;;;0.60;0.30;;;;;;;;;;5053167;28;20672;-80
2024/01/30 13:10:47;;;;;;;18.42;1.92;;;;;;;;;;5052848;28;20231;-79
2024/01/30 13:13:15;;;;;;;2.10;0.50;;;;;;;;;;5052897;28;20198;-80
2024/01/30 13:15:43;;;;;;;1.73;0.50;;;;;;;;;;5052574;28;20736;-80
2024/01/30 13:18:10;;;;;;;2.75;0.60;;;;;;;;;;5052316;28;20202;-79
2024/01/30 13:20:38;;;;;;;3.58;0.52;;;;;;;;;;5052987;28;20676;-80
2024/01/30 13:23:05;;;;;;;6.47;0.57;;;;;;;;;;5052640;28;20770;-79
2024/01/30 13:25:32;;;;;;;1.20;0.50;;;;;;;;;;5052614;28;20335;-80
2024/01/30 13:27:59;;;;;;;4.47;0.60;;;;;;;;;;5052508;28;20765;-79
2024/01/30 13:30:26;;;;;;;1.70;0.43;;;;;;;;;;5052221;28;20191;-80
2024/01/30 13:32:55;;;;;;;1.35;0.50;;;;;;;;;;5052499;28;20729;-80
2024/01/30 13:35:22;;;;;;;1.42;0.60;;;;;;;;;;5052394;28;20200;-80
2024/01/30 13:37:49;;;;;;;1.45;0.57;;;;;;;;;;5052257;28;20297;-79
2024/01/30 13:40:17;;;;;;;2.35;0.60;;;;;;;;;;5052338;28;20200;-80
2024/01/30 13:42:44;;;;;;;0.98;0.50;;;;;;;;;;5052257;28;20239;-80
2024/01/30 13:45:11;;;;;;;4.03;0.60;;;;;;;;;;5051937;28;20290;-80
2024/01/30 13:47:38;;;;;;;1.13;0.50;;;;;;;;;;5051878;28;20199;-80
2024/01/30 13:50:07;;;;;;;2.30;0.70;;;;;;;;;;5052564;28;20228;-80
2024/01/30 13:52:35;;;;;;;0.70;0.52;;;;;;;;;;5052048;28;20298;-80
2024/01/30 13:55:02;;;;;;;9.95;0.90;;;;;;;;;;5051965;28;20232;-80
2024/01/30 13:57:33;;;;;;;1.83;0.45;;;;;;;;;;5052429;28;20200;-79
2024/01/30 14:00:00;;;;;;;1.58;0.68;;;;;;;;;;5051272;28;20717;-79
2024/01/30 14:02:27;;;;;;;1.58;0.57;;;;;;;;;;5051630;28;20661;-80
2024/01/30 14:04:54;;;;;;;1.65;0.80;;;;;;;;;;5051895;28;20196;-79
2024/01/30 14:07:23;;;;;;;2.65;0.90;;;;;;;;;;5051902;28;20286;-80
2024/01/30 14:09:50;;;;;;;2.40;0.90;;;;;;;;;;5051816;28;20234;-80
2024/01/30 14:12:17;;;;;;;1.42;0.60;;;;;;;;;;5052108;28;20196;-80
2024/01/30 14:14:44;;;;;;;3.28;0.60;;;;;;;;;;5051386;28;20318;-79
2024/01/30 14:17:12;;;;;;;1.63;0.60;;;;;;;;;;5051719;28;20196;-80
2024/01/30 14:19:39;;;;;;;1.80;0.70;;;;;;;;;;5051733;28;20283;-79
2024/01/30 14:22:06;;;;;;;2.03;0.93;;;;;;;;;;5051459;28;20200;-80
2024/01/30 14:24:37;;;;;;;1.58;0.75;;;;;;;;;;5051645;28;20232;-80
2024/01/30 14:27:04;;;;;;;1.75;0.70;;;;;;;;;;5051427;28;20722;-79
2024/01/30 14:29:31;;;;;;;1.55;0.85;;;;;;;;;;5051089;28;20291;-79
2024/01/30 14:31:58;;;;;;;1.75;0.57;;;;;;;;;;5051435;28;20192;-79
2024/01/30 14:34:25;;;;;;;2.15;0.60;;;;;;;;;;5051453;28;20230;-79
2024/01/30 14:36:53;;;;;;;1.95;0.80;;;;;;;;;;5051452;28;20282;-80
2024/01/30 14:39:20;;;;;;;1.85;0.80;;;;;;;;;;5051829;28;20231;-79